createdAt,value
2019-05-06T00:01:24.617Z,3.30
2019-05-06T00:03:54.281Z,3.40
2019-05-06T00:06:23.818Z,3.20
2019-05-06T00:08:54.592Z,3.37
2019-05-06T00:11:24.021Z,2.80
2019-05-06T00:13:54.316Z,3.30
2019-05-06T00:16:23.950Z,3.20
2019-05-06T00:18:54.078Z,3.30
2019-05-06T00:21:24.472Z,3.23
2019-05-06T00:23:54.676Z,2.90
2019-05-06T00:26:56.737Z,2.97
2019-05-06T00:29:26.110Z,2.67
2019-05-06T00:31:55.337Z,3.20
2019-05-06T00:34:24.690Z,3.27
2019-05-06T00:36:54.461Z,2.93
2019-05-06T00:39:40.707Z,2.83
2019-05-06T00:42:37.965Z,2.90
2019-05-06T00:45:08.553Z,3.70
2019-05-06T00:47:37.656Z,3.40
2019-05-06T00:50:07.216Z,3.30
2019-05-06T00:52:37.132Z,2.87
2019-05-06T00:55:06.812Z,3.00
2019-05-06T00:57:45.087Z,3.43
2019-05-06T01:00:19.724Z,3.33
2019-05-06T01:02:48.943Z,4.03
2019-05-06T01:05:18.475Z,3.30
2019-05-06T01:07:47.602Z,3.23
2019-05-06T01:10:17.420Z,3.17
2019-05-06T01:12:56.249Z,2.93
2019-05-06T01:15:26.637Z,3.30
2019-05-06T01:17:55.756Z,3.07
2019-05-06T01:20:24.905Z,2.87
2019-05-06T01:22:54.459Z,3.10
2019-05-06T01:25:23.834Z,3.43
2019-05-06T01:27:53.994Z,2.63
2019-05-06T01:30:24.348Z,3.13
2019-05-06T01:32:54.350Z,3.30
2019-05-06T01:35:24.491Z,3.43
2019-05-06T01:38:14.653Z,3.17
2019-05-06T01:41:03.971Z,3.30
2019-05-06T01:43:34.739Z,3.17
2019-05-06T01:46:04.690Z,3.33
2019-05-06T01:48:49.533Z,3.23
2019-05-06T01:51:20.912Z,2.80
2019-05-06T01:53:50.433Z,3.77
2019-05-06T01:56:19.548Z,3.40
2019-05-06T01:58:48.672Z,3.27
2019-05-06T02:01:17.931Z,3.83
2019-05-06T02:03:47.047Z,2.63
2019-05-06T02:06:16.156Z,3.20
2019-05-06T02:08:45.349Z,3.87
2019-05-06T02:11:15.004Z,3.03
2019-05-06T02:13:45.685Z,3.10
2019-05-06T02:16:14.925Z,3.23
2019-05-06T02:18:45.019Z,3.53
2019-05-06T02:21:20.093Z,3.90
2019-05-06T02:23:54.296Z,3.60
2019-05-06T02:26:23.886Z,3.27
2019-05-06T02:28:55.261Z,3.07
2019-05-06T02:31:45.687Z,4.20
2019-05-06T02:34:25.398Z,3.33
2019-05-06T02:36:59.901Z,3.47
2019-05-06T02:39:29.132Z,3.20
2019-05-06T02:41:58.364Z,3.40
2019-05-06T02:44:27.495Z,3.57
2019-05-06T02:47:05.340Z,3.47
2019-05-06T02:49:53.407Z,3.20
2019-05-06T02:52:22.858Z,3.67
2019-05-06T02:54:53.698Z,3.10
2019-05-06T02:57:23.762Z,3.30
2019-05-06T02:59:55.246Z,3.00
2019-05-06T03:02:39.007Z,3.10
2019-05-06T03:04:55.101Z,3.67
2019-05-06T03:07:24.255Z,3.63
2019-05-06T03:09:53.518Z,3.60
2019-05-06T03:12:23.061Z,3.63
2019-05-06T03:14:53.371Z,3.43
2019-05-06T03:17:23.663Z,3.60
2019-05-06T03:19:54.756Z,3.70
2019-05-06T03:22:37.137Z,3.40
2019-05-06T03:25:28.041Z,4.10
2019-05-06T03:27:57.272Z,3.30
2019-05-06T03:30:27.612Z,3.57
2019-05-06T03:33:30.919Z,2.83
2019-05-06T03:35:48.367Z,3.47
2019-05-06T03:37:58.459Z,3.60
2019-05-06T03:40:27.598Z,3.90
2019-05-06T03:42:56.720Z,3.60
2019-05-06T03:45:44.907Z,3.50
2019-05-06T03:48:23.952Z,3.40
2019-05-06T03:50:55.479Z,3.50
2019-05-06T03:53:23.961Z,3.50
2019-05-06T03:55:54.041Z,3.90
2019-05-06T03:58:26.793Z,3.50
2019-05-06T04:00:57.158Z,3.37
2019-05-06T04:03:42.520Z,3.00
2019-05-06T04:05:57.145Z,3.27
2019-05-06T04:08:26.476Z,3.80
2019-05-06T04:10:55.652Z,3.73
2019-05-06T04:13:24.773Z,3.27
2019-05-06T04:16:13.814Z,3.67
2019-05-06T04:18:47.436Z,3.50
2019-05-06T04:21:29.435Z,3.77
2019-05-06T04:24:24.296Z,3.83
2019-05-06T04:27:07.588Z,4.20
2019-05-06T04:29:36.823Z,3.63
2019-05-06T04:32:06.016Z,3.27
2019-05-06T04:34:35.138Z,4.70
2019-05-06T04:37:04.303Z,3.73
2019-05-06T04:39:33.576Z,4.13
2019-05-06T04:42:03.892Z,3.80
2019-05-06T04:44:33.253Z,3.90
2019-05-06T04:47:05.379Z,3.90
2019-05-06T04:49:34.551Z,3.20
2019-05-06T04:52:04.706Z,3.67
2019-05-06T04:54:34.083Z,3.90
2019-05-06T04:57:05.107Z,3.97
2019-05-06T04:59:35.138Z,4.77
2019-05-06T05:02:04.348Z,4.20
2019-05-06T05:04:36.888Z,4.33
2019-05-06T05:07:04.991Z,3.70
2019-05-06T05:09:34.174Z,4.28
2019-05-06T05:12:13.189Z,4.20
2019-05-06T05:15:06.867Z,4.83
2019-05-06T05:17:46.350Z,5.10
2019-05-06T05:20:15.481Z,3.20
2019-05-06T05:22:44.800Z,5.00
2019-05-06T05:25:13.951Z,4.47
2019-05-06T05:27:43.149Z,4.13
2019-05-06T05:30:12.725Z,3.47
2019-05-06T05:32:42.831Z,4.40
2019-05-06T05:35:12.689Z,3.70
2019-05-06T05:37:42.154Z,4.13
2019-05-06T05:40:12.937Z,3.77
2019-05-06T05:42:55.517Z,4.00
2019-05-06T05:45:24.797Z,4.10
2019-05-06T05:47:55.991Z,4.20
2019-05-06T05:50:32.607Z,4.97
2019-05-06T05:53:02.554Z,4.30
2019-05-06T05:55:33.049Z,3.97
2019-05-06T05:58:03.195Z,4.30
2019-05-06T06:00:34.299Z,4.97
2019-05-06T06:03:06.805Z,4.43
2019-05-06T06:05:34.556Z,4.13
2019-05-06T06:08:03.786Z,4.70
2019-05-06T06:10:43.078Z,4.30
2019-05-06T06:13:12.865Z,4.50
2019-05-06T06:16:00.001Z,4.20
2019-05-06T06:18:48.608Z,4.27
2019-05-06T06:21:32.272Z,4.30
2019-05-06T06:24:06.707Z,4.00
2019-05-06T06:26:35.933Z,4.20
2019-05-06T06:29:05.129Z,4.50
2019-05-06T06:31:46.497Z,4.50
2019-05-06T06:34:23.784Z,4.30
2019-05-06T06:37:17.913Z,4.57
2019-05-06T06:39:48.014Z,4.57
2019-05-06T06:42:17.143Z,4.47
2019-05-06T06:44:47.764Z,4.60
2019-05-06T06:47:17.581Z,4.37
2019-05-06T06:49:46.712Z,4.67
2019-05-06T06:52:15.876Z,4.13
2019-05-06T06:54:44.997Z,4.47
2019-05-06T06:57:32.298Z,5.53
2019-05-06T07:00:15.640Z,5.00
2019-05-06T07:02:52.540Z,5.17
2019-05-06T07:05:36.379Z,6.07
2019-05-06T07:08:05.656Z,5.20
2019-05-06T07:10:53.113Z,6.57
2019-05-06T07:13:23.212Z,5.97
2019-05-06T07:15:52.666Z,7.20
2019-05-06T07:18:24.326Z,5.37
2019-05-06T07:21:13.875Z,5.73
2019-05-06T07:23:42.541Z,6.27
2019-05-06T07:26:13.361Z,6.53
2019-05-06T07:28:43.693Z,5.63
2019-05-06T07:31:21.962Z,6.20
2019-05-06T07:33:43.980Z,5.43
2019-05-06T07:36:13.239Z,6.97
2019-05-06T07:38:52.105Z,6.20
2019-05-06T07:41:26.775Z,7.17
2019-05-06T07:44:14.959Z,6.60
2019-05-06T07:46:52.536Z,6.60
2019-05-06T07:49:23.529Z,6.60
2019-05-06T07:51:53.125Z,6.40
2019-05-06T07:54:22.556Z,6.90
2019-05-06T07:56:52.607Z,6.77
2019-05-06T07:59:22.638Z,6.83
2019-05-06T08:01:54.100Z,6.30
2019-05-06T08:04:23.135Z,7.97
2019-05-06T08:06:52.404Z,8.07
2019-05-06T08:09:22.174Z,8.13
2019-05-06T08:11:53.019Z,7.60
2019-05-06T08:14:24.140Z,9.57
2019-05-06T08:17:02.092Z,8.33
2019-05-06T08:19:33.385Z,9.00
2019-05-06T08:22:04.056Z,8.23
2019-05-06T08:24:33.308Z,9.00
2019-05-06T08:27:02.992Z,9.03
2019-05-06T08:29:33.023Z,10.70
2019-05-06T08:32:02.910Z,10.10
2019-05-06T08:34:34.290Z,9.00
2019-05-06T08:37:22.749Z,9.83
2019-05-06T08:39:52.711Z,9.43
2019-05-06T08:42:22.484Z,10.80
2019-05-06T08:44:53.083Z,10.20
2019-05-06T08:47:22.632Z,7.00
2019-05-06T08:50:22.902Z,7.63
2019-05-06T08:53:26.382Z,9.50
2019-05-06T08:55:55.980Z,9.43
2019-05-06T08:58:44.176Z,9.20
2019-05-06T09:01:17.468Z,10.00
2019-05-06T09:03:46.706Z,9.67
2019-05-06T09:06:26.888Z,8.40
2019-05-06T09:08:47.070Z,9.03
2019-05-06T09:11:16.276Z,8.60
2019-05-06T09:13:45.427Z,7.67
2019-05-06T09:16:14.680Z,8.07
2019-05-06T09:18:44.222Z,7.53
2019-05-06T09:21:13.461Z,7.00
2019-05-06T09:24:02.259Z,7.70
2019-05-06T09:26:39.281Z,6.60
2019-05-06T09:29:23.133Z,6.40
2019-05-06T09:31:54.209Z,7.33
2019-05-06T09:34:29.552Z,6.70
2019-05-06T09:37:18.644Z,7.00
2019-05-06T09:39:48.033Z,7.17
2019-05-06T09:42:17.825Z,6.07
2019-05-06T09:44:50.413Z,7.13
2019-05-06T09:47:56.047Z,5.93
2019-05-06T09:50:45.532Z,6.80
2019-05-06T09:53:16.413Z,6.53
2019-05-06T09:56:16.894Z,7.13
2019-05-06T09:58:46.131Z,6.57
2019-05-06T10:01:16.531Z,7.33
2019-05-06T10:03:45.700Z,6.60
2019-05-06T10:06:15.013Z,5.93
2019-05-06T10:08:44.248Z,6.13
2019-05-06T10:11:13.396Z,6.47
2019-05-06T10:13:43.129Z,4.47
2019-05-06T10:16:12.970Z,4.87
2019-05-06T10:18:42.369Z,5.80
2019-05-06T10:21:12.527Z,5.53
2019-05-06T10:23:42.354Z,5.33
2019-05-06T10:26:13.010Z,4.90
2019-05-06T10:28:57.826Z,4.77
2019-05-06T10:31:28.892Z,5.27
2019-05-06T10:34:14.022Z,5.27
2019-05-06T10:36:53.423Z,5.23
2019-05-06T10:39:25.566Z,5.43
2019-05-06T10:42:13.158Z,5.73
2019-05-06T10:44:55.281Z,5.17
2019-05-06T10:47:24.604Z,5.77
2019-05-06T10:49:53.833Z,5.40
2019-05-06T10:52:27.513Z,6.60
2019-05-06T10:54:56.728Z,5.37
2019-05-06T10:57:35.977Z,4.37
2019-05-06T11:00:05.964Z,4.20
2019-05-06T11:02:52.415Z,5.40
2019-05-06T11:05:21.740Z,4.63
2019-05-06T11:07:52.154Z,4.50
2019-05-06T11:10:27.674Z,4.93
2019-05-06T11:12:52.438Z,5.33
2019-05-06T11:15:23.276Z,4.67
2019-05-06T11:17:52.720Z,4.60
2019-05-06T11:20:24.105Z,6.33
2019-05-06T11:22:52.952Z,5.00
2019-05-06T11:25:23.007Z,5.53
2019-05-06T11:27:52.823Z,4.33
2019-05-06T11:30:42.542Z,4.50
2019-05-06T11:33:30.015Z,4.63
2019-05-06T11:36:06.126Z,4.13
2019-05-06T11:38:35.364Z,4.80
2019-05-06T11:41:04.555Z,5.20
2019-05-06T11:43:33.725Z,4.80
2019-05-06T11:46:04.253Z,4.67
2019-05-06T11:48:33.528Z,5.10
2019-05-06T11:51:04.393Z,5.00
2019-05-06T11:53:33.719Z,6.03
2019-05-06T11:56:02.888Z,5.63
2019-05-06T11:58:48.673Z,5.30
2019-05-06T12:01:22.023Z,4.80
2019-05-06T12:03:52.173Z,5.00
2019-05-06T12:06:22.739Z,5.30
2019-05-06T12:08:52.560Z,5.63
2019-05-06T12:11:23.630Z,5.60
2019-05-06T12:13:53.342Z,5.40
2019-05-06T12:16:26.106Z,6.00
2019-05-06T12:18:53.560Z,5.60
2019-05-06T12:21:23.305Z,6.10
2019-05-06T12:23:53.791Z,5.70
2019-05-06T12:26:23.243Z,6.00
2019-05-06T12:28:53.140Z,7.20
2019-05-06T12:31:23.360Z,5.80
2019-05-06T12:33:53.511Z,6.53
2019-05-06T12:36:25.857Z,6.40
2019-05-06T12:39:15.846Z,6.00
2019-05-06T12:42:15.652Z,6.70
2019-05-06T12:45:06.958Z,6.43
2019-05-06T12:47:57.256Z,5.67
2019-05-06T12:50:26.536Z,6.13
2019-05-06T12:52:57.734Z,5.63
2019-05-06T12:55:26.661Z,6.07
2019-05-06T12:57:55.928Z,5.53
2019-05-06T13:00:27.308Z,5.13
2019-05-06T13:02:56.409Z,5.23
2019-05-06T13:05:25.593Z,4.40
2019-05-06T13:07:54.771Z,5.00
2019-05-06T13:10:23.928Z,4.80
2019-05-06T13:13:05.568Z,5.40
2019-05-06T13:15:35.509Z,4.70
2019-05-06T13:18:07.261Z,4.03
2019-05-06T13:20:36.894Z,4.47
2019-05-06T13:23:20.960Z,4.43
2019-05-06T13:25:45.614Z,4.83
2019-05-06T13:28:16.665Z,4.40
2019-05-06T13:30:45.977Z,4.50
2019-05-06T13:33:29.222Z,4.27
2019-05-06T13:35:58.496Z,4.43
2019-05-06T13:38:27.860Z,4.40
2019-05-06T13:40:57.728Z,5.30
2019-05-06T13:43:35.395Z,4.73
2019-05-06T13:46:07.908Z,6.20
2019-05-06T13:48:42.695Z,5.00
2019-05-06T13:51:14.745Z,5.50
2019-05-06T13:53:46.209Z,7.40
2019-05-06T13:56:14.906Z,5.53
2019-05-06T13:58:44.044Z,5.13
2019-05-06T14:01:16.232Z,6.33
2019-05-06T14:03:45.565Z,7.20
2019-05-06T14:06:14.783Z,4.90
2019-05-06T14:08:43.932Z,6.53
2019-05-06T14:11:13.259Z,4.53
2019-05-06T14:13:42.594Z,5.87
2019-05-06T14:16:13.013Z,4.77
2019-05-06T14:18:42.851Z,4.90
2019-05-06T14:21:12.504Z,5.00
2019-05-06T14:23:41.972Z,4.97
2019-05-06T14:26:19.168Z,5.30
2019-05-06T14:28:58.252Z,4.60
2019-05-06T14:31:32.536Z,4.80
2019-05-06T14:34:00.884Z,4.10
2019-05-06T14:36:32.117Z,4.60
2019-05-06T14:39:04.684Z,3.97
2019-05-06T14:41:32.689Z,4.30
2019-05-06T14:44:02.712Z,4.63
2019-05-06T14:46:57.397Z,4.57
2019-05-06T14:49:26.616Z,5.23
2019-05-06T14:51:55.723Z,5.10
2019-05-06T14:54:26.463Z,5.10
2019-05-06T14:57:04.357Z,4.77
2019-05-06T14:59:33.589Z,4.43
2019-05-06T15:02:02.805Z,5.00
2019-05-06T15:04:32.662Z,5.23
2019-05-06T15:07:02.283Z,4.60
2019-05-06T15:09:32.936Z,4.50
2019-05-06T15:12:02.532Z,5.20
2019-05-06T15:14:33.119Z,5.00
2019-05-06T15:17:02.451Z,5.10
2019-05-06T15:19:31.707Z,4.27
2019-05-06T15:22:02.281Z,4.63
2019-05-06T15:24:31.699Z,5.00
2019-05-06T15:27:02.742Z,4.90
2019-05-06T15:29:31.771Z,5.50
2019-05-06T15:32:08.783Z,4.87
2019-05-06T15:34:43.851Z,4.17
2019-05-06T15:37:27.295Z,4.87
2019-05-06T15:39:56.409Z,4.37
2019-05-06T15:42:25.575Z,3.87
2019-05-06T15:44:54.748Z,4.07
2019-05-06T15:47:23.987Z,5.10
2019-05-06T15:49:53.148Z,4.90
2019-05-06T15:52:23.473Z,4.20
2019-05-06T15:54:52.941Z,4.93
2019-05-06T15:57:22.914Z,4.50
2019-05-06T15:59:53.134Z,4.10
2019-05-06T16:02:23.211Z,3.83
2019-05-06T16:04:52.715Z,3.90
2019-05-06T16:07:25.673Z,3.57
2019-05-06T16:09:55.285Z,5.10
2019-05-06T16:12:23.952Z,3.90
2019-05-06T16:14:53.262Z,4.73
2019-05-06T16:17:23.836Z,4.50
2019-05-06T16:19:53.266Z,4.17
2019-05-06T16:22:22.790Z,3.87
2019-05-06T16:25:02.517Z,4.37
2019-05-06T16:27:30.942Z,4.77
2019-05-06T16:30:03.166Z,3.77
2019-05-06T16:32:33.243Z,3.87
2019-05-06T16:35:01.875Z,4.60
2019-05-06T16:37:32.977Z,4.23
2019-05-06T16:40:02.820Z,4.30
2019-05-06T16:42:32.330Z,4.30
2019-05-06T16:45:06.800Z,4.00
2019-05-06T16:47:39.346Z,4.03
2019-05-06T16:50:13.451Z,4.27
2019-05-06T16:52:45.524Z,3.43
2019-05-06T16:55:17.956Z,3.93
2019-05-06T16:57:53.284Z,3.50
2019-05-06T17:00:24.604Z,3.57
2019-05-06T17:03:14.407Z,3.67
2019-05-06T17:06:04.697Z,4.40
2019-05-06T17:08:36.524Z,3.57
2019-05-06T17:11:05.291Z,5.03
2019-05-06T17:13:37.529Z,3.87
2019-05-06T17:16:05.458Z,4.10
2019-05-06T17:18:34.675Z,4.00
2019-05-06T17:21:03.966Z,3.50
2019-05-06T17:23:33.361Z,3.60
2019-05-06T17:26:04.002Z,3.33
2019-05-06T17:28:39.189Z,4.00
2019-05-06T17:31:22.306Z,3.60
2019-05-06T17:33:51.928Z,3.50
2019-05-06T17:36:22.994Z,3.80
2019-05-06T17:38:52.647Z,4.30
2019-05-06T17:41:23.731Z,4.10
2019-05-06T17:43:53.080Z,3.80
2019-05-06T17:46:24.403Z,3.90
2019-05-06T17:49:05.384Z,3.70
2019-05-06T17:51:46.882Z,3.60
2019-05-06T17:54:16.048Z,3.93
2019-05-06T17:56:45.229Z,3.70
2019-05-06T17:59:14.488Z,3.50
2019-05-06T18:01:47.130Z,3.90
2019-05-06T18:04:16.354Z,2.80
2019-05-06T18:06:45.570Z,4.17
2019-05-06T18:09:14.726Z,3.80
2019-05-06T18:11:57.575Z,4.00
2019-05-06T18:14:16.878Z,3.37
2019-05-06T18:16:46.073Z,3.70
2019-05-06T18:19:15.317Z,4.07
2019-05-06T18:21:44.537Z,3.93
2019-05-06T18:24:13.672Z,3.60
2019-05-06T18:26:42.941Z,4.10
2019-05-06T18:29:13.304Z,3.40
2019-05-06T18:31:42.927Z,3.37
2019-05-06T18:34:12.935Z,3.40
2019-05-06T18:36:43.081Z,3.20
2019-05-06T18:39:12.719Z,4.30
2019-05-06T18:41:42.183Z,4.60
2019-05-06T18:44:11.990Z,4.33
2019-05-06T18:46:42.037Z,4.40
2019-05-06T18:49:13.059Z,3.97
2019-05-06T18:51:42.810Z,4.33
2019-05-06T18:54:12.490Z,3.47
2019-05-06T18:56:43.035Z,3.30
2019-05-06T18:59:12.356Z,3.43
2019-05-06T19:01:43.490Z,3.30
2019-05-06T19:04:22.633Z,3.07
2019-05-06T19:07:08.759Z,3.33
2019-05-06T19:09:42.367Z,3.90
2019-05-06T19:12:12.815Z,4.20
2019-05-06T19:14:44.024Z,3.43
2019-05-06T19:17:13.301Z,3.57
2019-05-06T19:19:42.798Z,2.90
2019-05-06T19:22:14.067Z,3.07
2019-05-06T19:24:44.796Z,3.63
2019-05-06T19:27:14.165Z,3.30
2019-05-06T19:29:43.444Z,4.00
2019-05-06T19:32:12.845Z,3.90
2019-05-06T19:34:42.379Z,3.83
2019-05-06T19:37:11.815Z,4.80
2019-05-06T19:39:43.117Z,5.73
2019-05-06T19:42:13.075Z,5.20
2019-05-06T19:44:43.156Z,4.83
2019-05-06T19:47:13.374Z,5.17
2019-05-06T19:49:42.592Z,5.27
2019-05-06T19:52:11.848Z,4.70
2019-05-06T19:54:42.484Z,4.50
2019-05-06T19:57:12.135Z,6.20
2019-05-06T19:59:42.895Z,4.97
2019-05-06T20:02:12.915Z,4.90
2019-05-06T20:04:44.374Z,4.90
2019-05-06T20:07:27.013Z,4.50
2019-05-06T20:10:13.743Z,4.77
2019-05-06T20:12:58.357Z,5.20
2019-05-06T20:15:37.703Z,4.10
2019-05-06T20:18:08.353Z,4.00
2019-05-06T20:20:37.806Z,5.20
2019-05-06T20:23:07.139Z,4.17
2019-05-06T20:25:37.232Z,4.60
2019-05-06T20:28:06.737Z,4.50
2019-05-06T20:30:35.983Z,5.40
2019-05-06T20:33:05.297Z,7.87
2019-05-06T20:35:34.477Z,5.93
2019-05-06T20:38:03.920Z,4.43
2019-05-06T20:40:33.098Z,4.83
2019-05-06T20:43:16.485Z,5.60
2019-05-06T20:45:35.620Z,4.87
2019-05-06T20:48:05.049Z,4.70
2019-05-06T20:50:34.196Z,4.73
2019-05-06T20:53:03.353Z,5.73
2019-05-06T20:55:35.545Z,5.33
2019-05-06T20:58:04.726Z,7.13
2019-05-06T21:00:33.971Z,7.80
2019-05-06T21:03:03.408Z,5.60
2019-05-06T21:05:32.552Z,5.20
2019-05-06T21:08:02.316Z,5.43
2019-05-06T21:10:32.974Z,5.50
2019-05-06T21:13:02.546Z,6.00
2019-05-06T21:15:32.561Z,6.40
2019-05-06T21:18:04.210Z,6.10
2019-05-06T21:20:33.133Z,5.50
2019-05-06T21:23:02.549Z,6.10
2019-05-06T21:25:33.295Z,5.63
2019-05-06T21:28:03.027Z,6.50
2019-05-06T21:30:32.514Z,6.97
2019-05-06T21:33:01.899Z,5.50
2019-05-06T21:35:33.141Z,5.63
2019-05-06T21:38:02.605Z,6.27
2019-05-06T21:40:32.403Z,7.37
2019-05-06T21:43:02.244Z,5.87
2019-05-06T21:45:33.067Z,6.17
2019-05-06T21:48:02.888Z,6.20
2019-05-06T21:50:33.045Z,5.30
2019-05-06T21:53:03.159Z,6.00
2019-05-06T21:55:32.938Z,6.30
2019-05-06T21:58:02.449Z,6.00
2019-05-06T22:00:43.363Z,5.87
2019-05-06T22:03:13.459Z,5.83
2019-05-06T22:05:42.839Z,6.00
2019-05-06T22:08:12.833Z,6.50
2019-05-06T22:10:42.397Z,5.33
2019-05-06T22:13:14.282Z,5.27
2019-05-06T22:15:42.676Z,5.63
2019-05-06T22:18:12.649Z,7.70
2019-05-06T22:21:00.044Z,6.57
2019-05-06T22:23:49.447Z,7.17
2019-05-06T22:26:18.603Z,6.70
2019-05-06T22:28:47.784Z,6.50
2019-05-06T22:31:16.975Z,7.17
2019-05-06T22:33:46.212Z,6.80
2019-05-06T22:36:15.493Z,6.20
2019-05-06T22:38:44.773Z,6.77
2019-05-06T22:41:14.327Z,7.00
2019-05-06T22:43:43.478Z,6.10
2019-05-06T22:46:12.644Z,6.03
2019-05-06T22:48:43.386Z,6.57
2019-05-06T22:51:12.650Z,6.10
2019-05-06T22:53:42.497Z,6.67
2019-05-06T22:56:14.352Z,6.80
2019-05-06T22:58:43.753Z,6.00
2019-05-06T23:01:33.961Z,7.70
2019-05-06T23:04:03.157Z,7.23
2019-05-06T23:06:32.929Z,7.00
2019-05-06T23:09:02.648Z,7.77
2019-05-06T23:11:32.857Z,7.60
2019-05-06T23:14:02.851Z,7.53
2019-05-06T23:16:33.096Z,6.50
2019-05-06T23:19:03.060Z,8.10
2019-05-06T23:21:33.695Z,7.00
2019-05-06T23:24:03.212Z,8.20
2019-05-06T23:26:32.351Z,7.53
2019-05-06T23:29:02.414Z,7.60
2019-05-06T23:31:33.235Z,8.77
2019-05-06T23:34:04.964Z,8.40
2019-05-06T23:37:23.256Z,8.10
2019-05-06T23:40:39.395Z,7.10
2019-05-06T23:43:43.907Z,7.40
2019-05-06T23:46:49.208Z,7.43
2019-05-06T23:49:53.430Z,8.07
2019-05-06T23:52:57.700Z,8.13
2019-05-06T23:56:02.949Z,8.47
2019-05-06T23:58:32.430Z,7.00
